Terminal Aerodrome Forecast
Issued by NWS Mt. Holly, NJ

Home | Current Version | Previous Version | Text Only | Print | Product List | Glossary On
Versions: 1 2 3 4 5 6 7 8 9 10 11 12 13 14 15 16 17 18 19 20 21 22 23 24 25 26 27 28 29
000
FTUS41 KPHI 052307 AAC
TAFTTN
TAF AMD
KTTN 052307Z 0523/0618 34009KT 4SM -SN FEW011 BKN035 OVC080
     FM060000 33010KT P6SM OVC090
     FM060300 32007KT P6SM SKC=

USA.gov is the U.S. government's official web portal to all federal, state and local government web resources and services.